Weather at Kynuna Airport

Public forecast

Using degrees Celsius for public forecast. Weather courtesy of forecast.io.

Closest aviation weather report (METAR) to Kynuna Airport

Closest report is Richmond Airport, 86.1 nm (159.4 km) NE. Retrieved 2021/06/20 09:00 UTC (12 minutes ago):

YRMD 200900Z AUTO 14006KT 9999 // NCD 15/M02 Q1018

Closest aviation forecast (TAF) to Kynuna Airport

Closest forecast is Mount Isa Airport, 147.1 nm (272.5 km) WNW. Retrieved 2021/06/20 06:03 UTC (3 hours ago):

TAF TAF YBMA 200409Z 2006/2018 10005KT CAVOK FM201000 VRB05KT CAVOK